| Date | Time | Temp. (oF) | Dew Point (oF) | Rel. Hum. (%) | Press. (in.) | Wind Dir. | Wind Speed (mph) | Hourly Rainfall (in.) |
|
|---|---|---|---|---|---|---|---|---|---|
| 1 | 01/25 | 00:00 | 18 | 6 | 59 | 30.33 | NW | 3 | 0.00 |
| 2 | 01/24 | 23:00 | 20 | 6 | 56 | 30.32 | NNW | 1 | 0.00 |
| 3 | 01/24 | 22:00 | 21 | 6 | 54 | 30.32 | WNW | 5 | 0.00 |
| 4 | 01/24 | 21:00 | 22 | 7 | 54 | 30.30 | NW | 4 | 0.00 |
| 5 | 01/24 | 20:00 | 23 | 7 | 51 | 30.28 | NNW | 4 | 0.00 |
| 6 | 01/24 | 19:00 | 25 | 8 | 49 | 30.26 | NW | 15 | 0.00 |
| 7 | 01/24 | 18:00 | 26 | 8 | 48 | 30.24 | NW | 11 | 0.00 |
| 8 | 01/24 | 17:00 | 28 | 8 | 44 | 30.20 | NW | 5 | 0.00 |
| 9 | 01/24 | 16:00 | 29 | 10 | 45 | 30.16 | NNW | 10 | 0.00 |
| 10 | 01/24 | 15:00 | 32 | 11 | 43 | 30.12 | NNW | 9 | 0.00 |
| 11 | 01/24 | 14:00 | 33 | 13 | 45 | 30.11 | N | 9 | 0.00 |
| 12 | 01/24 | 13:00 | 34 | 14 | 45 | 30.10 | WNW | 17 | 0.00 |
| 13 | 01/24 | 12:00 | 34 | 16 | 48 | 30.10 | NNW | 12 | 0.00 |
| 14 | 01/24 | 11:00 | 33 | 18 | 55 | 30.10 | N | 19 | 0.00 |
| 15 | 01/24 | 10:00 | 34 | 23 | 66 | 30.08 | NNW | 7 | 0.00 |
| 16 | 01/24 | 09:00 | 34 | 22 | 63 | 30.05 | NNW | 7 | 0.00 |
| 17 | 01/24 | 08:00 | 34 | 22 | 62 | 30.01 | NW | 7 | 0.00 |
| 18 | 01/24 | 07:00 | 35 | 22 | 61 | 29.98 | WSW | 5 | 0.00 |
| 19 | 01/24 | 06:00 | 36 | 23 | 61 | 29.94 | NNW | 9 | 0.00 |
| 20 | 01/24 | 05:00 | 38 | 26 | 63 | 29.90 | NW | 10 | 0.00 |
| 21 | 01/24 | 04:00 | 39 | 28 | 67 | 29.87 | NNW | 10 | 0.00 |
| 22 | 01/24 | 03:00 | 41 | 30 | 66 | 29.85 | NNW | 6 | 0.00 |
| 23 | 01/24 | 02:00 | 40 | 30 | 69 | 29.82 | NNW | 7 | 0.00 |
| 24 | 01/24 | 01:00 | 36 | 27 | 72 | 29.78 | SW | 3 | 0.00 |